KPHX/PHX METAR and TAF weather

Enter ICAO airport designator
Station Type Date Time Source
KPHX METAR 2022/01/23 11:51 UTC NOAA

KPHX 231151Z 23003KT 10SM BKN100 BKN210 09/07 A3004 RMK AO2 SLP165 70004 T00940072 10122 20089 58006 $


Station Type Date Time Source
KPHX Decoded METAR 2022/01/23 11:51 UTC NOAA

Phoenix, Phoenix Sky Harbor International Airport, AZ, United States (KPHX) 33-26-03N 112-03-04W 336M
Jan 23, 2022 - 06:51 AM EST / 2022.01.23 1151 UTC
Wind: from the SW (230 degrees) at 3 MPH (3 KT):0
Visibility: 10 mile(s):0
Sky conditions: mostly cloudy
Temperature: 48.9 F (9.4 C)
Dew Point: 45.0 F (7.2 C)
Relative Humidity: 86%
Pressure (altimeter): 30.04 in. Hg (1017 hPa)
Pressure tendency: 0.02 inches (0.6 hPa) lower than three hours ago
ob: KPHX 231151Z 23003KT 10SM BKN100 BKN210 09/07 A3004 RMK AO2 SLP165 70004 T00940072 10122 20089 58006
cycle: 12

Station Type Date Time Source
KPHX TAF 2022/01/23 12:22 UTC NOAA

TAF KPHX 231120Z 2312/2418 VRB05KT P6SM FEW080 SCT100
TEMPO 2312/2315 23005KT
FM231500 07006KT P6SM FEW080 SCT100
TEMPO 2317/2319 08009G18KT
FM240000 25004KT P6SM FEW080
FM240500 12005KT P6SM SKC

Example: see airport list